sensor_id;sensor_type;location;lat;lon;timestamp;temperature;humidity
52531;DHT22;38441;52.894;6.040;2022-11-15T00:01:41;7.40;99.90
52531;DHT22;38441;52.894;6.040;2022-11-15T00:09:00;7.40;99.90
52531;DHT22;38441;52.894;6.040;2022-11-15T00:13:58;7.40;99.90
52531;DHT22;38441;52.894;6.040;2022-11-15T00:16:24;7.50;99.90
52531;DHT22;38441;52.894;6.040;2022-11-15T00:26:14;7.50;99.90
52531;DHT22;38441;52.894;6.040;2022-11-15T00:31:11;7.50;99.90
52531;DHT22;38441;52.894;6.040;2022-11-15T00:36:05;7.40;99.90
52531;DHT22;38441;52.894;6.040;2022-11-15T00:38:36;7.30;99.90
52531;DHT22;38441;52.894;6.040;2022-11-15T01:03:00;7.30;99.90
52531;DHT22;38441;52.894;6.040;2022-11-15T01:05:26;7.30;99.90
52531;DHT22;38441;52.894;6.040;2022-11-15T01:12:44;7.20;99.90
52531;DHT22;38441;52.894;6.040;2022-11-15T01:47:17;7.10;99.90
52531;DHT22;38441;52.894;6.040;2022-11-15T01:49:52;7.20;99.90
52531;DHT22;38441;52.894;6.040;2022-11-15T01:52:21;7.10;99.90
52531;DHT22;38441;52.894;6.040;2022-11-15T01:54:48;7.10;99.90
52531;DHT22;38441;52.894;6.040;2022-11-15T01:59:43;7.10;99.90
52531;DHT22;38441;52.894;6.040;2022-11-15T02:04:40;7.00;99.90
52531;DHT22;38441;52.894;6.040;2022-11-15T02:07:07;7.10;99.90
52531;DHT22;38441;52.894;6.040;2022-11-15T02:09:36;7.10;99.90
52531;DHT22;38441;52.894;6.040;2022-11-15T02:12:02;7.20;99.90
52531;DHT22;38441;52.894;6.040;2022-11-15T02:25:01;7.10;99.90
52531;DHT22;38441;52.894;6.040;2022-11-15T02:30:37;7.30;99.90
52531;DHT22;38441;52.894;6.040;2022-11-15T02:33:27;7.20;99.90
52531;DHT22;38441;52.894;6.040;2022-11-15T02:36:27;7.20;99.90
52531;DHT22;38441;52.894;6.040;2022-11-15T02:38:59;7.20;99.90
52531;DHT22;38441;52.894;6.040;2022-11-15T02:41:42;7.30;99.90
52531;DHT22;38441;52.894;6.040;2022-11-15T02:44:22;7.20;99.90
52531;DHT22;38441;52.894;6.040;2022-11-15T02:46:58;7.20;99.90
52531;DHT22;38441;52.894;6.040;2022-11-15T02:52:20;7.30;99.90
52531;DHT22;38441;52.894;6.040;2022-11-15T02:55:24;7.30;99.90
52531;DHT22;38441;52.894;6.040;2022-11-15T02:58:22;7.30;99.90
52531;DHT22;38441;52.894;6.040;2022-11-15T03:06:49;7.40;99.90
52531;DHT22;38441;52.894;6.040;2022-11-15T03:09:37;7.50;99.90
52531;DHT22;38441;52.894;6.040;2022-11-15T03:15:12;7.50;99.90
52531;DHT22;38441;52.894;6.040;2022-11-15T03:18:10;7.60;99.90
52531;DHT22;38441;52.894;6.040;2022-11-15T03:23:08;7.50;99.90
52531;DHT22;38441;52.894;6.040;2022-11-15T03:25:36;7.40;99.90
52531;DHT22;38441;52.894;6.040;2022-11-15T03:28:05;7.70;99.90
52531;DHT22;38441;52.894;6.040;2022-11-15T03:30:34;7.60;99.90
52531;DHT22;38441;52.894;6.040;2022-11-15T03:35:31;7.60;99.90
52531;DHT22;38441;52.894;6.040;2022-11-15T03:40:49;7.70;99.90
52531;DHT22;38441;52.894;6.040;2022-11-15T03:46:05;7.60;99.90
52531;DHT22;38441;52.894;6.040;2022-11-15T03:48:37;7.80;99.90
52531;DHT22;38441;52.894;6.040;2022-11-15T04:13:02;8.00;99.90
52531;DHT22;38441;52.894;6.040;2022-11-15T04:15:27;8.00;99.90
52531;DHT22;38441;52.894;6.040;2022-11-15T04:17:55;8.00;99.90
52531;DHT22;38441;52.894;6.040;2022-11-15T04:23:21;8.10;99.90
52531;DHT22;38441;52.894;6.040;2022-11-15T04:26:08;8.10;99.90
52531;DHT22;38441;52.894;6.040;2022-11-15T04:31:21;8.10;99.90
52531;DHT22;38441;52.894;6.040;2022-11-15T04:41:23;8.30;99.90
52531;DHT22;38441;52.894;6.040;2022-11-15T04:58:25;8.50;99.90
52531;DHT22;38441;52.894;6.040;2022-11-15T05:06:01;8.60;99.90
52531;DHT22;38441;52.894;6.040;2022-11-15T05:13:19;8.70;99.90
52531;DHT22;38441;52.894;6.040;2022-11-15T05:15:45;8.80;99.90
52531;DHT22;38441;52.894;6.040;2022-11-15T05:18:11;8.80;99.90
52531;DHT22;38441;52.894;6.040;2022-11-15T05:20:37;8.80;99.90
52531;DHT22;38441;52.894;6.040;2022-11-15T05:25:28;8.80;99.90
52531;DHT22;38441;52.894;6.040;2022-11-15T05:27:54;9.00;99.90
52531;DHT22;38441;52.894;6.040;2022-11-15T05:30:20;9.00;99.90
52531;DHT22;38441;52.894;6.040;2022-11-15T05:32:45;8.80;99.90
52531;DHT22;38441;52.894;6.040;2022-11-15T05:35:34;8.90;99.90
52531;DHT22;38441;52.894;6.040;2022-11-15T05:38:01;9.10;99.90
52531;DHT22;38441;52.894;6.040;2022-11-15T05:40:27;9.00;99.90
52531;DHT22;38441;52.894;6.040;2022-11-15T05:45:20;9.00;99.90
52531;DHT22;38441;52.894;6.040;2022-11-15T05:47:46;9.10;99.90
52531;DHT22;38441;52.894;6.040;2022-11-15T05:50:15;9.10;99.90
52531;DHT22;38441;52.894;6.040;2022-11-15T05:52:42;9.10;99.90
52531;DHT22;38441;52.894;6.040;2022-11-15T05:55:08;9.10;99.90
52531;DHT22;38441;52.894;6.040;2022-11-15T05:57:34;9.20;99.90
52531;DHT22;38441;52.894;6.040;2022-11-15T06:00:01;9.30;99.90
52531;DHT22;38441;52.894;6.040;2022-11-15T06:02:27;9.20;99.90
52531;DHT22;38441;52.894;6.040;2022-11-15T06:04:52;9.20;99.90
52531;DHT22;38441;52.894;6.040;2022-11-15T06:07:18;9.20;99.90
52531;DHT22;38441;52.894;6.040;2022-11-15T06:09:43;9.30;99.90
52531;DHT22;38441;52.894;6.040;2022-11-15T06:17:01;9.40;99.90
52531;DHT22;38441;52.894;6.040;2022-11-15T06:19:28;9.20;99.90
52531;DHT22;38441;52.894;6.040;2022-11-15T06:22:01;9.40;99.90
52531;DHT22;38441;52.894;6.040;2022-11-15T06:24:27;9.40;99.90
52531;DHT22;38441;52.894;6.040;2022-11-15T06:26:53;9.40;99.90
52531;DHT22;38441;52.894;6.040;2022-11-15T06:29:18;9.40;99.90
52531;DHT22;38441;52.894;6.040;2022-11-15T06:31:44;9.40;99.90
52531;DHT22;38441;52.894;6.040;2022-11-15T06:34:10;9.40;99.90
52531;DHT22;38441;52.894;6.040;2022-11-15T06:36:36;9.50;99.90
52531;DHT22;38441;52.894;6.040;2022-11-15T06:39:05;9.60;99.90
52531;DHT22;38441;52.894;6.040;2022-11-15T06:41:34;9.60;99.90
52531;DHT22;38441;52.894;6.040;2022-11-15T06:43:59;9.60;99.90
52531;DHT22;38441;52.894;6.040;2022-11-15T06:46:25;9.70;99.90
52531;DHT22;38441;52.894;6.040;2022-11-15T06:48:51;9.60;99.90
52531;DHT22;38441;52.894;6.040;2022-11-15T06:51:17;9.60;99.90
52531;DHT22;38441;52.894;6.040;2022-11-15T06:53:43;9.60;99.90
52531;DHT22;38441;52.894;6.040;2022-11-15T06:56:08;9.60;99.90
52531;DHT22;38441;52.894;6.040;2022-11-15T06:58:35;9.70;99.90
52531;DHT22;38441;52.894;6.040;2022-11-15T07:01:06;9.70;99.90
52531;DHT22;38441;52.894;6.040;2022-11-15T07:03:34;9.80;99.90
52531;DHT22;38441;52.894;6.040;2022-11-15T07:08:28;9.70;99.90
52531;DHT22;38441;52.894;6.040;2022-11-15T07:10:54;9.80;99.90
52531;DHT22;38441;52.894;6.040;2022-11-15T07:13:22;9.80;99.90
52531;DHT22;38441;52.894;6.040;2022-11-15T07:15:49;9.70;99.90
52531;DHT22;38441;52.894;6.040;2022-11-15T07:18:14;9.80;99.90
52531;DHT22;38441;52.894;6.040;2022-11-15T07:23:06;9.90;99.90
52531;DHT22;38441;52.894;6.040;2022-11-15T07:25:31;9.60;99.90
52531;DHT22;38441;52.894;6.040;2022-11-15T07:27:58;9.90;99.90
52531;DHT22;38441;52.894;6.040;2022-11-15T07:30:24;9.80;99.90
52531;DHT22;38441;52.894;6.040;2022-11-15T07:32:57;9.80;99.90
52531;DHT22;38441;52.894;6.040;2022-11-15T07:35:24;9.70;99.90
52531;DHT22;38441;52.894;6.040;2022-11-15T07:38:00;9.90;99.90
52531;DHT22;38441;52.894;6.040;2022-11-15T07:40:28;9.90;99.90
52531;DHT22;38441;52.894;6.040;2022-11-15T07:43:04;9.90;99.90
52531;DHT22;38441;52.894;6.040;2022-11-15T07:45:31;9.90;99.90
52531;DHT22;38441;52.894;6.040;2022-11-15T07:47:59;9.90;99.90
52531;DHT22;38441;52.894;6.040;2022-11-15T07:50:25;10.00;99.90
52531;DHT22;38441;52.894;6.040;2022-11-15T07:52:58;10.00;99.90
52531;DHT22;38441;52.894;6.040;2022-11-15T07:55:26;9.90;99.90
52531;DHT22;38441;52.894;6.040;2022-11-15T07:58:03;10.00;99.90
52531;DHT22;38441;52.894;6.040;2022-11-15T08:00:29;10.10;99.90
52531;DHT22;38441;52.894;6.040;2022-11-15T08:03:06;10.10;99.90
52531;DHT22;38441;52.894;6.040;2022-11-15T08:05:33;10.10;99.90
52531;DHT22;38441;52.894;6.040;2022-11-15T08:07:59;10.10;99.90
52531;DHT22;38441;52.894;6.040;2022-11-15T08:10:25;10.10;99.90
52531;DHT22;38441;52.894;6.040;2022-11-15T08:13:02;10.20;99.90
52531;DHT22;38441;52.894;6.040;2022-11-15T08:15:29;10.20;99.90
52531;DHT22;38441;52.894;6.040;2022-11-15T08:17:56;10.20;99.90
52531;DHT22;38441;52.894;6.040;2022-11-15T08:20:23;10.20;99.90
52531;DHT22;38441;52.894;6.040;2022-11-15T08:25:15;10.20;99.90
52531;DHT22;38441;52.894;6.040;2022-11-15T08:27:41;10.30;99.90
52531;DHT22;38441;52.894;6.040;2022-11-15T08:30:07;10.30;99.90
52531;DHT22;38441;52.894;6.040;2022-11-15T08:32:33;10.30;99.90
52531;DHT22;38441;52.894;6.040;2022-11-15T08:34:58;10.20;99.90
52531;DHT22;38441;52.894;6.040;2022-11-15T08:39:50;10.30;99.90
52531;DHT22;38441;52.894;6.040;2022-11-15T08:42:16;10.40;99.90
52531;DHT22;38441;52.894;6.040;2022-11-15T08:44:42;10.40;99.90
52531;DHT22;38441;52.894;6.040;2022-11-15T08:47:10;10.40;99.90
52531;DHT22;38441;52.894;6.040;2022-11-15T08:49:36;10.50;99.90
52531;DHT22;38441;52.894;6.040;2022-11-15T08:52:01;10.40;99.90
52531;DHT22;38441;52.894;6.040;2022-11-15T08:54:27;10.50;99.90
52531;DHT22;38441;52.894;6.040;2022-11-15T08:59:19;10.60;99.90
52531;DHT22;38441;52.894;6.040;2022-11-15T09:01:45;10.50;99.90
52531;DHT22;38441;52.894;6.040;2022-11-15T09:04:10;10.50;99.90
52531;DHT22;38441;52.894;6.040;2022-11-15T09:06:36;10.50;99.90
52531;DHT22;38441;52.894;6.040;2022-11-15T09:09:02;10.50;99.90
52531;DHT22;38441;52.894;6.040;2022-11-15T09:11:28;10.50;99.90
52531;DHT22;38441;52.894;6.040;2022-11-15T09:13:54;10.70;99.90
52531;DHT22;38441;52.894;6.040;2022-11-15T09:16:19;10.70;99.90
52531;DHT22;38441;52.894;6.040;2022-11-15T09:21:11;10.60;99.90
52531;DHT22;38441;52.894;6.040;2022-11-15T09:23:37;10.80;99.90
52531;DHT22;38441;52.894;6.040;2022-11-15T09:26:04;10.80;99.90
52531;DHT22;38441;52.894;6.040;2022-11-15T09:28:31;10.90;99.90
52531;DHT22;38441;52.894;6.040;2022-11-15T09:30:57;10.90;99.90
52531;DHT22;38441;52.894;6.040;2022-11-15T09:33:24;10.90;99.90
52531;DHT22;38441;52.894;6.040;2022-11-15T09:35:49;11.00;99.90
52531;DHT22;38441;52.894;6.040;2022-11-15T09:38:15;11.00;99.90
52531;DHT22;38441;52.894;6.040;2022-11-15T09:40:41;10.90;99.90
52531;DHT22;38441;52.894;6.040;2022-11-15T09:46:09;11.00;99.90
52531;DHT22;38441;52.894;6.040;2022-11-15T09:53:58;11.00;99.90
52531;DHT22;38441;52.894;6.040;2022-11-15T09:56:28;11.20;99.90
52531;DHT22;38441;52.894;6.040;2022-11-15T10:01:44;11.20;99.90
52531;DHT22;38441;52.894;6.040;2022-11-15T10:04:14;11.10;99.90
52531;DHT22;38441;52.894;6.040;2022-11-15T10:06:44;11.30;99.90
52531;DHT22;38441;52.894;6.040;2022-11-15T10:09:27;11.30;99.90
52531;DHT22;38441;52.894;6.040;2022-11-15T10:11:54;11.30;99.90
52531;DHT22;38441;52.894;6.040;2022-11-15T10:14:22;11.40;99.90
52531;DHT22;38441;52.894;6.040;2022-11-15T10:17:25;11.40;99.90
52531;DHT22;38441;52.894;6.040;2022-11-15T10:22:56;11.40;99.90
52531;DHT22;38441;52.894;6.040;2022-11-15T10:25:28;11.60;99.90
52531;DHT22;38441;52.894;6.040;2022-11-15T10:27:58;11.50;99.90
52531;DHT22;38441;52.894;6.040;2022-11-15T10:30:35;11.50;99.90
52531;DHT22;38441;52.894;6.040;2022-11-15T10:33:52;11.60;99.90
52531;DHT22;38441;52.894;6.040;2022-11-15T10:44:26;11.60;99.90
52531;DHT22;38441;52.894;6.040;2022-11-15T10:49:25;11.40;99.90
52531;DHT22;38441;52.894;6.040;2022-11-15T10:54:34;11.60;99.90
52531;DHT22;38441;52.894;6.040;2022-11-15T10:57:15;11.50;99.90
52531;DHT22;38441;52.894;6.040;2022-11-15T10:59:51;11.50;99.90
52531;DHT22;38441;52.894;6.040;2022-11-15T11:02:32;11.60;99.90
52531;DHT22;38441;52.894;6.040;2022-11-15T11:04:59;11.60;99.90
52531;DHT22;38441;52.894;6.040;2022-11-15T11:07:30;11.70;99.90
52531;DHT22;38441;52.894;6.040;2022-11-15T11:10:20;11.60;99.90
52531;DHT22;38441;52.894;6.040;2022-11-15T11:12:46;11.50;99.90
52531;DHT22;38441;52.894;6.040;2022-11-15T11:15:14;11.60;99.90
52531;DHT22;38441;52.894;6.040;2022-11-15T11:20:38;11.50;99.90
52531;DHT22;38441;52.894;6.040;2022-11-15T11:26:23;11.50;99.90
52531;DHT22;38441;52.894;6.040;2022-11-15T11:32:00;11.50;99.90
52531;DHT22;38441;52.894;6.040;2022-11-15T11:37:37;11.50;99.90
52531;DHT22;38441;52.894;6.040;2022-11-15T11:48:17;11.60;99.90
52531;DHT22;38441;52.894;6.040;2022-11-15T11:50:46;11.90;99.90
52531;DHT22;38441;52.894;6.040;2022-11-15T11:53:30;11.90;99.90
52531;DHT22;38441;52.894;6.040;2022-11-15T11:56:01;12.00;99.90
52531;DHT22;38441;52.894;6.040;2022-11-15T11:58:34;12.10;99.90
52531;DHT22;38441;52.894;6.040;2022-11-15T12:03:55;12.10;99.90
52531;DHT22;38441;52.894;6.040;2022-11-15T12:11:42;12.20;99.90
52531;DHT22;38441;52.894;6.040;2022-11-15T12:14:30;12.20;99.90
52531;DHT22;38441;52.894;6.040;2022-11-15T12:16:57;12.30;99.90
52531;DHT22;38441;52.894;6.040;2022-11-15T12:19:24;12.20;99.90
52531;DHT22;38441;52.894;6.040;2022-11-15T12:24:45;12.50;99.90
52531;DHT22;38441;52.894;6.040;2022-11-15T12:27:18;12.40;99.90
52531;DHT22;38441;52.894;6.040;2022-11-15T12:29:52;12.40;99.90
52531;DHT22;38441;52.894;6.040;2022-11-15T12:32:31;12.40;99.90
52531;DHT22;38441;52.894;6.040;2022-11-15T12:34:59;12.20;99.90
52531;DHT22;38441;52.894;6.040;2022-11-15T12:37:51;12.30;99.90
52531;DHT22;38441;52.894;6.040;2022-11-15T12:40:30;12.30;99.90
52531;DHT22;38441;52.894;6.040;2022-11-15T12:43:32;12.20;99.90
52531;DHT22;38441;52.894;6.040;2022-11-15T12:45:52;12.20;99.90
52531;DHT22;38441;52.894;6.040;2022-11-15T12:58:54;12.20;99.90
52531;DHT22;38441;52.894;6.040;2022-11-15T13:07:02;12.10;99.90
52531;DHT22;38441;52.894;6.040;2022-11-15T13:11:58;12.10;99.90
52531;DHT22;38441;52.894;6.040;2022-11-15T13:17:21;12.00;99.90
52531;DHT22;38441;52.894;6.040;2022-11-15T13:22:25;12.20;99.90
52531;DHT22;38441;52.894;6.040;2022-11-15T13:25:16;12.10;99.90
52531;DHT22;38441;52.894;6.040;2022-11-15T13:27:48;12.20;99.90
52531;DHT22;38441;52.894;6.040;2022-11-15T13:30:26;12.00;99.90
52531;DHT22;38441;52.894;6.040;2022-11-15T13:32:52;12.10;99.90
52531;DHT22;38441;52.894;6.040;2022-11-15T13:35:29;12.10;99.90
52531;DHT22;38441;52.894;6.040;2022-11-15T13:37:57;12.10;99.90
52531;DHT22;38441;52.894;6.040;2022-11-15T13:40:37;12.20;99.90
52531;DHT22;38441;52.894;6.040;2022-11-15T13:46:27;12.20;99.90
52531;DHT22;38441;52.894;6.040;2022-11-15T13:49:04;12.00;99.90
52531;DHT22;38441;52.894;6.040;2022-11-15T13:51:48;11.90;99.90
52531;DHT22;38441;52.894;6.040;2022-11-15T13:57:12;11.90;99.90
52531;DHT22;38441;52.894;6.040;2022-11-15T13:59:49;12.00;99.90
52531;DHT22;38441;52.894;6.040;2022-11-15T14:02:25;11.80;99.90
52531;DHT22;38441;52.894;6.040;2022-11-15T14:05:04;11.90;99.90
52531;DHT22;38441;52.894;6.040;2022-11-15T14:07:30;11.70;99.90
52531;DHT22;38441;52.894;6.040;2022-11-15T14:09:56;11.80;99.90
52531;DHT22;38441;52.894;6.040;2022-11-15T14:12:33;11.70;99.90
52531;DHT22;38441;52.894;6.040;2022-11-15T14:17:44;11.70;99.90
52531;DHT22;38441;52.894;6.040;2022-11-15T14:20:40;11.50;99.90
52531;DHT22;38441;52.894;6.040;2022-11-15T14:23:26;11.60;99.90
52531;DHT22;38441;52.894;6.040;2022-11-15T14:25:58;11.40;99.90
52531;DHT22;38441;52.894;6.040;2022-11-15T14:30:51;11.50;99.90
52531;DHT22;38441;52.894;6.040;2022-11-15T14:33:44;11.40;99.90
52531;DHT22;38441;52.894;6.040;2022-11-15T14:36:15;11.40;99.90
52531;DHT22;38441;52.894;6.040;2022-11-15T14:38:41;11.20;99.90
52531;DHT22;38441;52.894;6.040;2022-11-15T14:41:22;11.20;99.90
52531;DHT22;38441;52.894;6.040;2022-11-15T14:43:49;11.40;99.90
52531;DHT22;38441;52.894;6.040;2022-11-15T14:46:15;11.30;99.90
52531;DHT22;38441;52.894;6.040;2022-11-15T14:48:40;11.20;99.90
52531;DHT22;38441;52.894;6.040;2022-11-15T14:51:15;11.30;99.90
52531;DHT22;38441;52.894;6.040;2022-11-15T14:53:42;11.30;99.90
52531;DHT22;38441;52.894;6.040;2022-11-15T14:56:08;11.20;99.90
52531;DHT22;38441;52.894;6.040;2022-11-15T14:58:34;11.10;99.90
52531;DHT22;38441;52.894;6.040;2022-11-15T15:01:16;11.20;99.90
52531;DHT22;38441;52.894;6.040;2022-11-15T15:03:43;11.00;99.90
52531;DHT22;38441;52.894;6.040;2022-11-15T15:06:09;11.00;99.90
52531;DHT22;38441;52.894;6.040;2022-11-15T15:08:35;11.10;99.90
52531;DHT22;38441;52.894;6.040;2022-11-15T15:11:00;11.00;99.90
52531;DHT22;38441;52.894;6.040;2022-11-15T15:13:26;11.00;99.90
52531;DHT22;38441;52.894;6.040;2022-11-15T15:15:54;10.90;99.90
52531;DHT22;38441;52.894;6.040;2022-11-15T15:18:19;10.90;99.90
52531;DHT22;38441;52.894;6.040;2022-11-15T15:20:49;10.80;99.90
52531;DHT22;38441;52.894;6.040;2022-11-15T15:23:18;10.80;99.90
52531;DHT22;38441;52.894;6.040;2022-11-15T15:25:44;10.80;99.90
52531;DHT22;38441;52.894;6.040;2022-11-15T15:28:11;10.80;99.90
52531;DHT22;38441;52.894;6.040;2022-11-15T15:30:37;10.70;99.90
52531;DHT22;38441;52.894;6.040;2022-11-15T15:33:02;10.70;99.90
52531;DHT22;38441;52.894;6.040;2022-11-15T15:35:30;10.70;99.90
52531;DHT22;38441;52.894;6.040;2022-11-15T15:37:57;10.60;99.90
52531;DHT22;38441;52.894;6.040;2022-11-15T15:40:23;10.70;99.90
52531;DHT22;38441;52.894;6.040;2022-11-15T15:42:50;10.60;99.90
52531;DHT22;38441;52.894;6.040;2022-11-15T15:45:17;10.50;99.90
52531;DHT22;38441;52.894;6.040;2022-11-15T15:47:43;10.60;99.90
52531;DHT22;38441;52.894;6.040;2022-11-15T15:50:25;10.40;99.90
52531;DHT22;38441;52.894;6.040;2022-11-15T15:52:52;10.50;99.90
52531;DHT22;38441;52.894;6.040;2022-11-15T15:55:18;10.50;99.90
52531;DHT22;38441;52.894;6.040;2022-11-15T15:57:44;10.50;99.90
52531;DHT22;38441;52.894;6.040;2022-11-15T16:00:10;10.50;99.90
52531;DHT22;38441;52.894;6.040;2022-11-15T16:02:36;10.50;99.90
52531;DHT22;38441;52.894;6.040;2022-11-15T16:05:01;10.60;99.90
52531;DHT22;38441;52.894;6.040;2022-11-15T16:07:27;10.50;99.90
52531;DHT22;38441;52.894;6.040;2022-11-15T16:09:55;10.60;99.90
52531;DHT22;38441;52.894;6.040;2022-11-15T16:12:34;10.50;99.90
52531;DHT22;38441;52.894;6.040;2022-11-15T16:15:01;10.40;99.90
52531;DHT22;38441;52.894;6.040;2022-11-15T16:17:33;10.70;99.90
52531;DHT22;38441;52.894;6.040;2022-11-15T16:20:01;10.70;99.90
52531;DHT22;38441;52.894;6.040;2022-11-15T16:22:26;10.80;99.90
52531;DHT22;38441;52.894;6.040;2022-11-15T16:24:54;10.70;99.90
52531;DHT22;38441;52.894;6.040;2022-11-15T16:27:21;10.70;99.90
52531;DHT22;38441;52.894;6.040;2022-11-15T16:29:47;10.80;99.90
52531;DHT22;38441;52.894;6.040;2022-11-15T16:32:13;10.90;99.90
52531;DHT22;38441;52.894;6.040;2022-11-15T16:34:39;11.00;99.90
52531;DHT22;38441;52.894;6.040;2022-11-15T16:37:05;10.80;99.90
52531;DHT22;38441;52.894;6.040;2022-11-15T16:39:31;11.00;99.90
52531;DHT22;38441;52.894;6.040;2022-11-15T16:42:00;10.90;99.90
52531;DHT22;38441;52.894;6.040;2022-11-15T16:44:27;11.10;99.90
52531;DHT22;38441;52.894;6.040;2022-11-15T16:46:53;11.00;99.90
52531;DHT22;38441;52.894;6.040;2022-11-15T16:49:20;11.10;99.90
52531;DHT22;38441;52.894;6.040;2022-11-15T16:51:46;10.90;99.90
52531;DHT22;38441;52.894;6.040;2022-11-15T16:54:13;11.00;99.90
52531;DHT22;38441;52.894;6.040;2022-11-15T16:56:39;11.00;99.90
52531;DHT22;38441;52.894;6.040;2022-11-15T16:59:05;11.10;99.90
52531;DHT22;38441;52.894;6.040;2022-11-15T17:01:33;11.00;99.90
52531;DHT22;38441;52.894;6.040;2022-11-15T17:04:15;11.20;99.90
52531;DHT22;38441;52.894;6.040;2022-11-15T17:06:44;11.20;99.90
52531;DHT22;38441;52.894;6.040;2022-11-15T17:09:21;11.20;99.90
52531;DHT22;38441;52.894;6.040;2022-11-15T17:11:50;11.20;99.90
52531;DHT22;38441;52.894;6.040;2022-11-15T17:14:16;11.20;99.90
52531;DHT22;38441;52.894;6.040;2022-11-15T17:16:42;11.10;99.90
52531;DHT22;38441;52.894;6.040;2022-11-15T17:19:17;11.20;99.90
52531;DHT22;38441;52.894;6.040;2022-11-15T17:21:46;11.20;99.90
52531;DHT22;38441;52.894;6.040;2022-11-15T17:24:13;11.30;99.90
52531;DHT22;38441;52.894;6.040;2022-11-15T17:26:39;11.30;99.90
52531;DHT22;38441;52.894;6.040;2022-11-15T17:29:05;11.20;99.90
52531;DHT22;38441;52.894;6.040;2022-11-15T17:31:36;11.20;99.90
52531;DHT22;38441;52.894;6.040;2022-11-15T17:34:03;11.20;99.90
52531;DHT22;38441;52.894;6.040;2022-11-15T17:36:30;11.20;99.90
52531;DHT22;38441;52.894;6.040;2022-11-15T17:38:56;11.30;99.90
52531;DHT22;38441;52.894;6.040;2022-11-15T17:41:21;11.30;99.90
52531;DHT22;38441;52.894;6.040;2022-11-15T17:43:48;11.20;99.90
52531;DHT22;38441;52.894;6.040;2022-11-15T17:46:16;11.30;99.90
52531;DHT22;38441;52.894;6.040;2022-11-15T17:48:42;11.20;99.90
52531;DHT22;38441;52.894;6.040;2022-11-15T17:51:11;11.20;99.90
52531;DHT22;38441;52.894;6.040;2022-11-15T17:53:40;11.30;99.90
52531;DHT22;38441;52.894;6.040;2022-11-15T17:56:16;11.30;99.90
52531;DHT22;38441;52.894;6.040;2022-11-15T17:58:49;11.20;99.90
52531;DHT22;38441;52.894;6.040;2022-11-15T18:01:22;11.20;99.90
52531;DHT22;38441;52.894;6.040;2022-11-15T18:03:48;11.20;99.90
52531;DHT22;38441;52.894;6.040;2022-11-15T18:06:15;11.20;99.90
52531;DHT22;38441;52.894;6.040;2022-11-15T18:08:42;11.30;99.90
52531;DHT22;38441;52.894;6.040;2022-11-15T18:11:17;11.30;99.90
52531;DHT22;38441;52.894;6.040;2022-11-15T18:13:45;11.30;99.90
52531;DHT22;38441;52.894;6.040;2022-11-15T18:16:16;11.30;99.90
52531;DHT22;38441;52.894;6.040;2022-11-15T18:18:42;11.20;99.90
52531;DHT22;38441;52.894;6.040;2022-11-15T18:21:15;11.30;99.90
52531;DHT22;38441;52.894;6.040;2022-11-15T18:23:43;11.30;99.90
52531;DHT22;38441;52.894;6.040;2022-11-15T18:26:10;11.40;99.90
52531;DHT22;38441;52.894;6.040;2022-11-15T18:28:39;11.30;99.90
52531;DHT22;38441;52.894;6.040;2022-11-15T18:31:26;11.40;99.90
52531;DHT22;38441;52.894;6.040;2022-11-15T18:33:52;11.40;99.90
52531;DHT22;38441;52.894;6.040;2022-11-15T18:36:20;11.40;99.90
52531;DHT22;38441;52.894;6.040;2022-11-15T18:38:47;11.40;99.90
52531;DHT22;38441;52.894;6.040;2022-11-15T18:41:17;11.30;99.90
52531;DHT22;38441;52.894;6.040;2022-11-15T18:43:45;11.20;99.90
52531;DHT22;38441;52.894;6.040;2022-11-15T18:46:13;11.30;99.90
52531;DHT22;38441;52.894;6.040;2022-11-15T18:48:41;11.50;99.90
52531;DHT22;38441;52.894;6.040;2022-11-15T18:51:14;11.20;99.90
52531;DHT22;38441;52.894;6.040;2022-11-15T18:53:41;11.40;99.90
52531;DHT22;38441;52.894;6.040;2022-11-15T18:56:10;11.40;99.90
52531;DHT22;38441;52.894;6.040;2022-11-15T18:58:38;11.40;99.90
52531;DHT22;38441;52.894;6.040;2022-11-15T19:01:08;11.40;99.90
52531;DHT22;38441;52.894;6.040;2022-11-15T19:03:35;11.30;99.90
52531;DHT22;38441;52.894;6.040;2022-11-15T19:06:07;11.40;99.90
52531;DHT22;38441;52.894;6.040;2022-11-15T19:08:34;11.50;99.90
52531;DHT22;38441;52.894;6.040;2022-11-15T19:11:10;11.40;99.90
52531;DHT22;38441;52.894;6.040;2022-11-15T19:16:03;11.40;99.90
52531;DHT22;38441;52.894;6.040;2022-11-15T19:18:30;11.40;99.90
52531;DHT22;38441;52.894;6.040;2022-11-15T19:20:56;11.40;99.90
52531;DHT22;38441;52.894;6.040;2022-11-15T19:23:22;11.50;99.90
52531;DHT22;38441;52.894;6.040;2022-11-15T19:25:55;11.40;99.90
52531;DHT22;38441;52.894;6.040;2022-11-15T19:28:22;11.40;99.90
52531;DHT22;38441;52.894;6.040;2022-11-15T19:30:48;11.30;99.90
52531;DHT22;38441;52.894;6.040;2022-11-15T19:33:13;11.20;99.90
52531;DHT22;38441;52.894;6.040;2022-11-15T19:35:39;11.40;99.90
52531;DHT22;38441;52.894;6.040;2022-11-15T19:38:04;11.20;99.90
52531;DHT22;38441;52.894;6.040;2022-11-15T19:40:32;11.20;99.90
52531;DHT22;38441;52.894;6.040;2022-11-15T19:42:58;11.40;99.90
52531;DHT22;38441;52.894;6.040;2022-11-15T19:45:23;11.20;99.90
52531;DHT22;38441;52.894;6.040;2022-11-15T19:47:49;11.10;99.90
52531;DHT22;38441;52.894;6.040;2022-11-15T19:50:15;11.10;99.90
52531;DHT22;38441;52.894;6.040;2022-11-15T19:52:40;11.10;99.90
52531;DHT22;38441;52.894;6.040;2022-11-15T19:55:06;11.00;99.90
52531;DHT22;38441;52.894;6.040;2022-11-15T19:57:32;11.00;99.90
52531;DHT22;38441;52.894;6.040;2022-11-15T19:59:58;10.90;99.90
52531;DHT22;38441;52.894;6.040;2022-11-15T20:02:26;10.90;99.90
52531;DHT22;38441;52.894;6.040;2022-11-15T20:04:52;10.90;99.90
52531;DHT22;38441;52.894;6.040;2022-11-15T20:07:19;10.90;99.90
52531;DHT22;38441;52.894;6.040;2022-11-15T20:09:45;10.80;99.90
52531;DHT22;38441;52.894;6.040;2022-11-15T20:12:11;10.90;99.90
52531;DHT22;38441;52.894;6.040;2022-11-15T20:14:37;10.80;99.90
52531;DHT22;38441;52.894;6.040;2022-11-15T20:17:02;10.80;99.90
52531;DHT22;38441;52.894;6.040;2022-11-15T20:19:28;10.80;99.90
52531;DHT22;38441;52.894;6.040;2022-11-15T20:21:54;10.80;99.90
52531;DHT22;38441;52.894;6.040;2022-11-15T20:24:19;10.80;99.90
52531;DHT22;38441;52.894;6.040;2022-11-15T20:26:45;10.70;99.90
52531;DHT22;38441;52.894;6.040;2022-11-15T20:29:11;10.70;99.90
52531;DHT22;38441;52.894;6.040;2022-11-15T20:31:37;10.80;99.90
52531;DHT22;38441;52.894;6.040;2022-11-15T20:34:02;10.80;99.90
52531;DHT22;38441;52.894;6.040;2022-11-15T20:36:28;10.70;99.90
52531;DHT22;38441;52.894;6.040;2022-11-15T20:38:57;10.60;99.90
52531;DHT22;38441;52.894;6.040;2022-11-15T20:41:24;10.70;99.90
52531;DHT22;38441;52.894;6.040;2022-11-15T20:43:50;10.60;99.90
52531;DHT22;38441;52.894;6.040;2022-11-15T20:46:16;10.60;99.90
52531;DHT22;38441;52.894;6.040;2022-11-15T20:48:41;10.60;99.90
52531;DHT22;38441;52.894;6.040;2022-11-15T20:51:12;10.60;99.90